createdAt,value
2022-09-25T00:02:08.160Z,79.88
2022-09-25T00:04:56.493Z,79.99
2022-09-25T00:07:44.864Z,79.89
2022-09-25T00:10:34.884Z,79.97
2022-09-25T00:13:23.880Z,79.84
2022-09-25T00:16:15.411Z,79.98
2022-09-25T00:19:21.249Z,80.04
2022-09-25T00:22:09.576Z,80.33
2022-09-25T00:24:58.119Z,80.33
2022-09-25T00:30:41.662Z,80.29
2022-09-25T00:33:29.969Z,81.96
2022-09-25T00:36:18.730Z,83.26
2022-09-25T00:39:07.555Z,82.90
2022-09-25T00:41:55.870Z,83.14
2022-09-25T00:45:00.986Z,82.09
2022-09-25T00:47:58.756Z,82.14
2022-09-25T00:50:53.113Z,81.81
2022-09-25T00:53:42.135Z,81.77
2022-09-25T00:56:33.839Z,83.49
2022-09-25T00:59:26.139Z,83.85
2022-09-25T01:02:30.785Z,84.09
2022-09-25T01:05:22.386Z,84.06
2022-09-25T01:08:14.317Z,83.67
2022-09-25T01:11:02.937Z,83.23
2022-09-25T01:13:54.469Z,83.13
2022-09-25T01:16:48.261Z,83.08
2022-09-25T01:19:53.198Z,82.13
2022-09-25T01:22:52.476Z,81.95
2022-09-25T01:25:56.515Z,81.77
2022-09-25T01:29:00.453Z,81.67
2022-09-25T01:31:57.044Z,81.52
2022-09-25T01:34:54.118Z,81.18
2022-09-25T01:37:46.663Z,81.11
2022-09-25T01:40:37.117Z,80.90
2022-09-25T01:43:32.506Z,81.38
2022-09-25T01:46:24.658Z,81.69
2022-09-25T01:49:19.441Z,81.64
2022-09-25T01:52:13.298Z,81.05
2022-09-25T01:55:12.631Z,80.96
2022-09-25T01:58:09.079Z,81.22
2022-09-25T02:01:03.347Z,81.00
2022-09-25T02:03:57.938Z,80.86
2022-09-25T02:06:49.662Z,80.68
2022-09-25T02:09:42.107Z,80.58
2022-09-25T02:12:35.444Z,80.90
2022-09-25T02:15:30.818Z,81.09
2022-09-25T02:18:38.756Z,81.04
2022-09-25T02:21:38.087Z,80.73
2022-09-25T02:24:32.320Z,80.51
2022-09-25T02:27:21.025Z,80.58
2022-09-25T02:30:11.654Z,80.25
2022-09-25T02:32:59.896Z,80.43
2022-09-25T02:35:48.566Z,80.18
2022-09-25T02:38:38.207Z,79.93
2022-09-25T02:41:39.754Z,79.57
2022-09-25T02:44:39.978Z,79.24
2022-09-25T02:47:36.774Z,79.18
2022-09-25T02:50:28.346Z,78.89
2022-09-25T02:53:21.898Z,78.93
2022-09-25T02:56:15.695Z,78.79
2022-09-25T02:59:09.057Z,79.07
2022-09-25T03:01:58.909Z,78.98
2022-09-25T03:04:49.280Z,79.09
2022-09-25T03:07:52.538Z,78.91
2022-09-25T03:10:41.983Z,78.90
2022-09-25T03:13:34.217Z,79.00
2022-09-25T03:16:32.624Z,78.93
2022-09-25T03:19:21.124Z,78.95
2022-09-25T03:22:09.441Z,79.08
2022-09-25T03:24:57.674Z,79.15
2022-09-25T03:27:48.074Z,79.18
2022-09-25T03:30:38.761Z,79.12
2022-09-25T03:33:28.571Z,79.52
2022-09-25T03:36:19.629Z,79.10
2022-09-25T03:39:10.891Z,79.31
2022-09-25T03:41:59.224Z,79.38
2022-09-25T03:44:47.568Z,79.08
2022-09-25T03:47:37.254Z,78.83
2022-09-25T03:50:25.580Z,79.04
2022-09-25T03:53:13.906Z,78.94
2022-09-25T03:56:03.068Z,78.76
2022-09-25T03:58:54.377Z,78.49
2022-09-25T04:01:42.794Z,78.40
2022-09-25T04:04:32.661Z,78.64
2022-09-25T04:07:21.026Z,78.39
2022-09-25T04:10:10.247Z,78.63
2022-09-25T04:12:58.689Z,78.77
2022-09-25T04:15:47.059Z,79.55
2022-09-25T04:18:35.512Z,79.33
2022-09-25T04:21:25.335Z,78.87
2022-09-25T04:24:31.187Z,78.68
2022-09-25T04:27:21.855Z,78.71
2022-09-25T04:30:11.631Z,78.84
2022-09-25T04:33:17.968Z,78.49
2022-09-25T04:36:07.218Z,78.37
2022-09-25T04:38:56.995Z,78.49
2022-09-25T04:41:45.261Z,78.67
2022-09-25T04:44:33.588Z,78.57
2022-09-25T04:47:22.618Z,78.85
2022-09-25T04:50:11.025Z,78.92
2022-09-25T04:53:00.555Z,78.89
2022-09-25T04:55:50.256Z,78.69
2022-09-25T04:58:38.750Z,78.58
2022-09-25T05:01:27.120Z,78.51
2022-09-25T05:04:16.292Z,78.33
2022-09-25T05:07:05.010Z,78.17
2022-09-25T05:09:53.777Z,77.90
2022-09-25T05:12:43.711Z,77.85
2022-09-25T05:15:34.249Z,77.41
2022-09-25T05:18:24.322Z,76.90
2022-09-25T05:21:12.741Z,77.11
2022-09-25T05:24:01.214Z,76.83
2022-09-25T05:26:49.551Z,76.54
2022-09-25T05:29:40.266Z,76.84
2022-09-25T05:32:28.701Z,76.27
2022-09-25T05:35:18.291Z,76.30
2022-09-25T05:38:06.870Z,76.37
2022-09-25T05:40:55.872Z,75.96
2022-09-25T05:43:47.664Z,76.55
2022-09-25T05:46:37.847Z,76.49
2022-09-25T05:49:26.186Z,76.56
2022-09-25T05:52:14.524Z,76.09
2022-09-25T05:55:03.749Z,75.94
2022-09-25T05:57:52.394Z,76.10
2022-09-25T06:00:40.735Z,76.52
2022-09-25T06:03:30.822Z,76.59
2022-09-25T06:06:21.456Z,76.11
2022-09-25T06:09:13.810Z,76.00
2022-09-25T06:12:02.542Z,74.98
2022-09-25T06:14:51.457Z,74.44
2022-09-25T06:17:40.205Z,74.66
2022-09-25T06:20:29.922Z,75.30
2022-09-25T06:23:18.648Z,75.54
2022-09-25T06:26:09.513Z,76.24
2022-09-25T06:29:03.261Z,77.37
2022-09-25T06:31:53.327Z,76.87
2022-09-25T06:34:41.730Z,75.99
2022-09-25T06:37:31.788Z,72.61
2022-09-25T06:40:20.412Z,73.16
2022-09-25T06:43:11.467Z,74.54
2022-09-25T06:46:03.952Z,74.33
2022-09-25T06:48:54.301Z,75.00
2022-09-25T06:51:42.934Z,75.78
2022-09-25T06:54:32.814Z,76.30
2022-09-25T06:57:21.166Z,76.54
2022-09-25T07:00:10.743Z,76.18
2022-09-25T07:03:16.522Z,75.08
2022-09-25T07:06:07.143Z,74.94
2022-09-25T07:08:57.208Z,74.76
2022-09-25T07:11:48.799Z,74.66
2022-09-25T07:14:38.662Z,74.68
2022-09-25T07:17:27.125Z,73.33
2022-09-25T07:20:15.936Z,73.25
2022-09-25T07:23:04.362Z,72.84
2022-09-25T07:25:52.873Z,72.78
2022-09-25T07:28:44.648Z,72.85
2022-09-25T07:31:34.877Z,72.55
2022-09-25T07:34:23.473Z,72.35
2022-09-25T07:37:12.193Z,72.65
2022-09-25T07:40:00.604Z,72.38
2022-09-25T07:42:49.042Z,72.33
2022-09-25T07:45:38.850Z,72.75
2022-09-25T07:48:27.527Z,71.85
2022-09-25T07:51:17.184Z,72.52
2022-09-25T07:54:05.739Z,73.95
2022-09-25T07:56:54.467Z,73.43
2022-09-25T07:59:42.788Z,72.92
2022-09-25T08:02:32.561Z,73.02
2022-09-25T08:05:20.884Z,72.98
2022-09-25T08:08:10.116Z,71.82
2022-09-25T08:11:02.806Z,72.39
2022-09-25T08:13:51.230Z,72.77
2022-09-25T08:16:39.574Z,72.98
2022-09-25T08:19:29.971Z,72.72
2022-09-25T08:22:18.322Z,73.12
2022-09-25T08:25:07.297Z,73.55
2022-09-25T08:27:55.734Z,73.83
2022-09-25T08:30:44.688Z,73.32
2022-09-25T08:33:34.603Z,73.37
2022-09-25T08:36:24.477Z,73.99
2022-09-25T08:39:12.845Z,73.08
2022-09-25T08:42:02.032Z,72.93
2022-09-25T08:45:21.457Z,73.16
2022-09-25T08:48:38.344Z,73.10
2022-09-25T08:51:29.682Z,73.73
2022-09-25T08:54:23.953Z,72.33
2022-09-25T08:57:20.136Z,72.95
2022-09-25T09:00:21.304Z,72.49
2022-09-25T09:03:12.125Z,73.48
2022-09-25T09:06:03.963Z,73.98
2022-09-25T09:08:59.515Z,74.61
2022-09-25T09:11:52.585Z,74.62
2022-09-25T09:14:45.793Z,73.81
2022-09-25T09:17:42.563Z,73.26
2022-09-25T09:20:39.043Z,73.56
2022-09-25T09:23:35.378Z,73.34
2022-09-25T09:26:33.830Z,72.45
2022-09-25T09:29:39.099Z,71.18
2022-09-25T09:32:43.122Z,73.54
2022-09-25T09:35:37.636Z,74.39
2022-09-25T09:38:34.264Z,75.73
2022-09-25T09:41:35.018Z,75.89
2022-09-25T09:44:53.631Z,75.25
2022-09-25T09:47:50.308Z,74.42
2022-09-25T09:50:51.357Z,74.21
2022-09-25T09:53:45.383Z,73.91
2022-09-25T09:56:37.188Z,73.63
2022-09-25T09:59:31.576Z,74.06
2022-09-25T10:02:31.571Z,74.18
2022-09-25T10:05:26.781Z,73.96
2022-09-25T10:08:15.336Z,72.73
2022-09-25T10:11:11.184Z,72.77
2022-09-25T10:14:05.166Z,73.41
2022-09-25T10:16:54.883Z,74.01
2022-09-25T10:19:49.290Z,73.81
2022-09-25T10:22:41.645Z,73.87
2022-09-25T10:25:40.920Z,73.73
2022-09-25T10:28:32.365Z,74.21
2022-09-25T10:31:22.452Z,74.52
2022-09-25T10:34:22.503Z,74.11
2022-09-25T10:37:21.238Z,74.22
2022-09-25T10:40:25.645Z,74.35
2022-09-25T10:43:20.662Z,74.91
2022-09-25T10:46:14.082Z,74.51
2022-09-25T10:49:37.685Z,74.72
2022-09-25T10:52:26.073Z,75.11
2022-09-25T10:55:17.502Z,74.12
2022-09-25T10:58:15.120Z,73.36
2022-09-25T11:01:05.017Z,73.25
2022-09-25T11:03:56.650Z,73.33
2022-09-25T11:06:49.283Z,73.22
2022-09-25T11:09:44.038Z,73.04
2022-09-25T11:12:33.236Z,72.51
2022-09-25T11:15:25.837Z,72.85
2022-09-25T11:18:36.040Z,74.72
2022-09-25T11:21:31.660Z,74.50
2022-09-25T11:24:28.107Z,73.68
2022-09-25T11:27:21.785Z,73.75
2022-09-25T11:30:14.362Z,74.95
2022-09-25T11:33:07.425Z,74.48
2022-09-25T11:36:01.867Z,73.54
2022-09-25T11:39:13.495Z,72.21
2022-09-25T11:42:09.436Z,72.15
2022-09-25T11:45:03.614Z,71.47
2022-09-25T11:47:58.721Z,72.31
2022-09-25T11:50:57.632Z,73.01
2022-09-25T11:54:07.275Z,73.13
2022-09-25T11:57:11.920Z,72.82
2022-09-25T12:00:09.655Z,72.33
2022-09-25T12:03:12.229Z,72.29
2022-09-25T12:06:20.179Z,72.31
2022-09-25T12:09:23.429Z,72.20
2022-09-25T12:12:24.237Z,72.05
2022-09-25T12:15:20.659Z,73.35
2022-09-25T12:18:18.776Z,71.97
2022-09-25T12:21:11.821Z,72.28
2022-09-25T12:24:08.943Z,71.68
2022-09-25T12:27:06.364Z,71.73
2022-09-25T12:30:11.686Z,70.97
2022-09-25T12:33:15.829Z,71.07
2022-09-25T12:36:10.286Z,70.74
2022-09-25T12:39:08.886Z,69.60
2022-09-25T12:42:06.289Z,69.33
2022-09-25T12:45:01.166Z,68.47
2022-09-25T12:48:12.035Z,67.92
2022-09-25T12:51:07.289Z,67.93
2022-09-25T12:54:00.433Z,67.49
2022-09-25T12:56:54.260Z,67.49
2022-09-25T12:59:46.933Z,67.97
2022-09-25T13:02:41.943Z,68.12
2022-09-25T13:05:35.106Z,68.17
2022-09-25T13:08:30.323Z,68.61
2022-09-25T13:11:30.123Z,66.69
2022-09-25T13:14:34.675Z,66.52
2022-09-25T13:17:24.043Z,66.59
2022-09-25T13:20:50.272Z,66.71
2022-09-25T13:23:42.089Z,67.21
2022-09-25T13:26:31.775Z,66.99
2022-09-25T13:29:25.227Z,66.51
2022-09-25T13:32:19.074Z,66.35
2022-09-25T13:35:19.758Z,66.28
2022-09-25T13:38:36.605Z,66.43
2022-09-25T13:41:24.176Z,66.57
2022-09-25T13:44:52.628Z,66.61
2022-09-25T13:48:07.097Z,66.72
2022-09-25T13:51:35.778Z,67.36
2022-09-25T13:54:28.985Z,67.96
2022-09-25T13:57:17.939Z,68.67
2022-09-25T14:00:15.595Z,68.64
2022-09-25T14:03:04.938Z,68.55
2022-09-25T14:05:53.252Z,68.22
2022-09-25T14:08:44.034Z,68.59
2022-09-25T14:11:37.868Z,68.54
2022-09-25T14:14:31.403Z,68.71
2022-09-25T14:17:21.799Z,68.81
2022-09-25T14:20:31.251Z,68.54
2022-09-25T14:23:26.293Z,69.35
2022-09-25T14:26:21.720Z,69.56
2022-09-25T14:29:18.610Z,69.63
2022-09-25T14:32:43.201Z,69.66
2022-09-25T14:35:37.068Z,69.28
2022-09-25T14:39:03.251Z,69.30
2022-09-25T14:42:18.867Z,69.75
2022-09-25T14:45:40.235Z,71.29
2022-09-25T14:48:35.091Z,72.40
2022-09-25T14:51:26.904Z,72.53
2022-09-25T14:54:19.967Z,72.92
2022-09-25T14:57:12.088Z,72.68
2022-09-25T15:00:03.461Z,73.15
2022-09-25T15:02:56.418Z,74.08
2022-09-25T15:05:47.711Z,73.48
2022-09-25T15:08:38.691Z,73.41
2022-09-25T15:11:29.996Z,72.83
2022-09-25T15:14:20.857Z,72.93
2022-09-25T15:17:32.928Z,72.98
2022-09-25T15:20:25.884Z,72.77
2022-09-25T15:23:19.612Z,72.58
2022-09-25T15:26:15.025Z,72.11
2022-09-25T15:29:03.624Z,73.16
2022-09-25T15:31:52.703Z,73.61
2022-09-25T15:34:41.895Z,75.05
2022-09-25T15:37:31.796Z,76.58
2022-09-25T15:40:25.760Z,76.46
2022-09-25T15:43:16.264Z,76.95
2022-09-25T15:46:37.404Z,77.51
2022-09-25T15:49:31.236Z,77.11
2022-09-25T15:52:23.935Z,77.11
2022-09-25T15:55:15.278Z,76.72
2022-09-25T15:58:08.573Z,76.49
2022-09-25T16:01:18.845Z,76.14
2022-09-25T16:04:27.306Z,76.27
2022-09-25T16:07:29.004Z,76.17
2022-09-25T16:10:33.225Z,76.26
2022-09-25T16:13:23.750Z,76.10
2022-09-25T16:16:19.703Z,76.18
2022-09-25T16:19:28.482Z,75.80
2022-09-25T16:22:23.972Z,75.86
2022-09-25T16:25:32.276Z,75.91
2022-09-25T16:28:25.566Z,76.15
2022-09-25T16:31:14.120Z,76.79
2022-09-25T16:34:03.230Z,76.45
2022-09-25T16:36:51.790Z,77.00
2022-09-25T16:39:40.704Z,76.79
2022-09-25T16:42:39.538Z,77.07
2022-09-25T16:45:33.270Z,77.37
2022-09-25T16:48:36.341Z,77.41
2022-09-25T16:51:26.992Z,77.50
2022-09-25T16:54:18.467Z,77.97
2022-09-25T16:57:06.901Z,77.86
2022-09-25T16:59:55.410Z,77.89
2022-09-25T17:02:47.615Z,77.82
2022-09-25T17:05:36.278Z,77.44
2022-09-25T17:08:25.260Z,77.43
2022-09-25T17:11:14.284Z,77.53
2022-09-25T17:14:02.938Z,77.69
2022-09-25T17:16:51.926Z,77.82
2022-09-25T17:19:41.901Z,78.36
2022-09-25T17:22:31.189Z,78.24
2022-09-25T17:25:25.741Z,78.14
2022-09-25T17:28:15.438Z,78.27
2022-09-25T17:31:04.874Z,78.48
2022-09-25T17:33:53.335Z,78.30
2022-09-25T17:36:43.230Z,78.44
2022-09-25T17:39:31.626Z,78.56
2022-09-25T17:42:19.965Z,79.07
2022-09-25T17:45:21.841Z,79.31
2022-09-25T17:48:11.232Z,79.28
2022-09-25T17:51:01.223Z,79.44
2022-09-25T17:53:52.854Z,79.56
2022-09-25T17:56:42.769Z,79.68
2022-09-25T17:59:31.296Z,79.85
2022-09-25T18:02:20.019Z,80.33
2022-09-25T18:05:12.546Z,80.92
2022-09-25T18:08:00.925Z,81.50
2022-09-25T18:10:54.772Z,81.85
2022-09-25T18:13:43.652Z,82.45
2022-09-25T18:16:33.577Z,82.47
2022-09-25T18:19:39.785Z,82.24
2022-09-25T18:22:28.616Z,82.07
2022-09-25T18:25:17.016Z,81.72
2022-09-25T18:28:06.980Z,81.67
2022-09-25T18:30:55.422Z,81.55
2022-09-25T18:33:47.287Z,81.02
2022-09-25T18:36:36.167Z,81.05
2022-09-25T18:39:24.613Z,80.99
2022-09-25T18:42:13.020Z,80.77
2022-09-25T18:45:03.816Z,81.08
2022-09-25T18:47:52.196Z,80.71
2022-09-25T18:50:41.833Z,80.58
2022-09-25T18:53:30.447Z,80.68
2022-09-25T18:56:19.054Z,80.61
2022-09-25T18:59:07.855Z,80.45
2022-09-25T19:01:58.477Z,80.28
2022-09-25T19:04:47.747Z,80.04
2022-09-25T19:07:38.089Z,79.88
2022-09-25T19:10:26.475Z,79.35
2022-09-25T19:13:15.011Z,79.54
2022-09-25T19:16:04.177Z,79.50
2022-09-25T19:18:54.023Z,79.05
2022-09-25T19:21:42.574Z,79.60
2022-09-25T19:24:37.729Z,79.88
2022-09-25T19:27:29.091Z,79.78
2022-09-25T19:30:17.889Z,80.12
2022-09-25T19:33:06.295Z,79.94
2022-09-25T19:35:59.550Z,80.44
2022-09-25T19:38:48.617Z,81.02
2022-09-25T19:41:39.187Z,81.11
2022-09-25T19:44:27.645Z,81.08
2022-09-25T19:47:16.663Z,81.09
2022-09-25T19:50:08.820Z,81.11
2022-09-25T19:52:59.822Z,81.27
2022-09-25T19:55:52.605Z,81.44
2022-09-25T19:58:41.488Z,81.90
2022-09-25T20:01:30.664Z,82.36
2022-09-25T20:04:19.350Z,82.50
2022-09-25T20:07:07.765Z,82.62
2022-09-25T20:09:57.627Z,82.64
2022-09-25T20:12:46.085Z,82.51
2022-09-25T20:15:34.831Z,82.72
2022-09-25T20:18:23.383Z,82.79
2022-09-25T20:21:13.947Z,82.72
2022-09-25T20:24:04.312Z,82.49
2022-09-25T20:26:54.235Z,82.47
2022-09-25T20:29:42.668Z,82.22
2022-09-25T20:32:31.873Z,82.29
2022-09-25T20:35:20.787Z,82.28
2022-09-25T20:38:11.111Z,82.17
2022-09-25T20:41:00.813Z,82.24
2022-09-25T20:43:52.769Z,82.31
2022-09-25T20:46:42.235Z,82.19
2022-09-25T20:49:31.350Z,81.75
2022-09-25T20:52:19.749Z,81.68
2022-09-25T20:55:08.761Z,82.38
2022-09-25T20:57:57.103Z,82.13
2022-09-25T21:00:47.421Z,81.62
2022-09-25T21:03:38.313Z,81.93
2022-09-25T21:06:28.745Z,81.91
2022-09-25T21:09:21.143Z,82.05
2022-09-25T21:12:09.503Z,82.27
2022-09-25T21:14:57.884Z,82.08
2022-09-25T21:17:47.669Z,82.23
2022-09-25T21:20:36.947Z,82.23
2022-09-25T21:23:25.283Z,81.96
2022-09-25T21:26:15.130Z,82.02
2022-09-25T21:29:05.935Z,81.84
2022-09-25T21:31:54.846Z,81.85
2022-09-25T21:34:44.576Z,81.87
2022-09-25T21:37:32.997Z,81.93
2022-09-25T21:40:21.446Z,81.77
2022-09-25T21:43:11.269Z,81.89
2022-09-25T21:46:01.488Z,81.85
2022-09-25T21:48:52.258Z,81.75
2022-09-25T21:51:45.385Z,82.04
2022-09-25T21:54:33.818Z,81.92
2022-09-25T21:57:23.112Z,81.97
2022-09-25T22:00:12.837Z,82.11
2022-09-25T22:03:01.311Z,82.38
2022-09-25T22:05:50.028Z,82.89
2022-09-25T22:08:42.541Z,82.88
2022-09-25T22:11:31.534Z,83.12
2022-09-25T22:14:20.551Z,83.61
2022-09-25T22:17:08.959Z,83.57
2022-09-25T22:19:58.893Z,84.18
2022-09-25T22:22:50.388Z,84.70
2022-09-25T22:25:40.086Z,88.72
2022-09-25T22:28:28.927Z,89.25
2022-09-25T22:31:19.538Z,89.25
2022-09-25T22:34:14.703Z,89.70
2022-09-25T22:37:03.036Z,88.48
2022-09-25T22:39:51.433Z,88.00
2022-09-25T22:42:41.107Z,87.50
2022-09-25T22:45:30.036Z,87.16
2022-09-25T22:48:18.724Z,87.00
2022-09-25T22:51:08.897Z,86.40
2022-09-25T22:53:57.371Z,86.17
2022-09-25T22:56:45.912Z,85.20
2022-09-25T22:59:35.679Z,85.58
2022-09-25T23:02:24.142Z,85.49
2022-09-25T23:05:12.840Z,85.37
2022-09-25T23:08:01.300Z,85.24
2022-09-25T23:11:06.630Z,85.13
2022-09-25T23:13:58.920Z,85.12
2022-09-25T23:16:50.357Z,85.27
2022-09-25T23:19:39.346Z,84.99
2022-09-25T23:22:27.784Z,85.17
2022-09-25T23:25:16.123Z,85.30
2022-09-25T23:28:04.695Z,85.32
2022-09-25T23:30:53.188Z,85.60
2022-09-25T23:33:43.981Z,85.61
2022-09-25T23:36:32.737Z,86.67
2022-09-25T23:39:21.581Z,89.07
2022-09-25T23:42:09.960Z,90.06
2022-09-25T23:44:58.284Z,90.24
2022-09-25T23:47:46.602Z,89.57
2022-09-25T23:50:36.367Z,88.31
2022-09-25T23:53:24.703Z,88.30
2022-09-25T23:56:15.564Z,88.15
2022-09-25T23:59:06.014Z,87.70
